createdAt,value
2019-02-02T00:01:53.124Z,13.63
2019-02-02T00:04:19.163Z,13.83
2019-02-02T00:06:45.199Z,12.47
2019-02-02T00:09:12.160Z,12.10
2019-02-02T00:11:38.307Z,12.77
2019-02-02T00:14:04.668Z,13.53
2019-02-02T00:16:30.716Z,12.90
2019-02-02T00:18:56.923Z,12.83
2019-02-02T00:21:22.949Z,12.60
2019-02-02T00:23:48.983Z,12.33
2019-02-02T00:26:15.040Z,12.93
2019-02-02T00:28:41.083Z,12.50
2019-02-02T00:31:07.126Z,12.40
2019-02-02T00:33:33.179Z,11.57
2019-02-02T00:35:59.212Z,12.63
2019-02-02T00:38:25.243Z,12.33
2019-02-02T00:40:51.417Z,12.53
2019-02-02T00:43:17.452Z,11.97
2019-02-02T00:45:43.489Z,12.00
2019-02-02T00:48:09.593Z,13.03
2019-02-02T00:50:35.723Z,13.03
2019-02-02T00:53:01.747Z,13.17
2019-02-02T00:55:27.791Z,12.83
2019-02-02T00:57:54.167Z,12.17
2019-02-02T01:00:22.645Z,13.00
2019-02-02T01:02:48.987Z,12.80
2019-02-02T01:05:17.255Z,12.50
2019-02-02T01:07:43.719Z,13.63
2019-02-02T01:10:19.755Z,13.27
2019-02-02T01:12:45.916Z,12.27
2019-02-02T01:15:13.699Z,13.67
2019-02-02T01:17:40.075Z,12.30
2019-02-02T01:20:09.328Z,12.70
2019-02-02T01:22:35.675Z,14.23
2019-02-02T01:25:03.743Z,13.40
2019-02-02T01:27:29.799Z,13.70
2019-02-02T01:29:57.082Z,13.07
2019-02-02T01:32:23.131Z,12.77
2019-02-02T01:34:49.168Z,13.50
2019-02-02T01:37:15.539Z,12.50
2019-02-02T01:39:41.611Z,13.37
2019-02-02T01:42:07.651Z,14.13
2019-02-02T01:44:33.687Z,13.87
2019-02-02T01:46:59.751Z,13.53
2019-02-02T01:49:25.801Z,13.90
2019-02-02T01:51:51.836Z,14.50
2019-02-02T01:54:17.899Z,14.83
2019-02-02T01:56:43.944Z,14.90
2019-02-02T01:59:10.024Z,14.30
2019-02-02T02:01:36.068Z,15.27
2019-02-02T02:04:02.207Z,14.63
2019-02-02T02:06:28.253Z,14.70
2019-02-02T02:08:54.327Z,14.17
2019-02-02T02:11:20.375Z,14.93
2019-02-02T02:13:46.411Z,14.73
2019-02-02T02:16:12.479Z,14.47
2019-02-02T02:18:38.591Z,15.63
2019-02-02T02:21:04.621Z,14.60
2019-02-02T02:23:30.675Z,14.90
2019-02-02T02:25:56.716Z,15.87
2019-02-02T02:28:28.172Z,16.63
2019-02-02T02:30:50.740Z,15.77
2019-02-02T02:33:16.784Z,15.73
2019-02-02T02:35:42.826Z,15.80
2019-02-02T02:38:08.871Z,14.70
2019-02-02T02:40:34.932Z,15.07
2019-02-02T02:43:01.020Z,16.37
2019-02-02T02:45:27.343Z,17.83
2019-02-02T02:47:53.386Z,17.27
2019-02-02T02:50:22.362Z,17.13
2019-02-02T02:52:48.696Z,16.10
2019-02-02T02:55:15.678Z,15.20
2019-02-02T02:57:42.015Z,16.87
2019-02-02T03:00:14.351Z,14.90
2019-02-02T03:02:40.426Z,17.27
2019-02-02T03:05:09.268Z,17.73
2019-02-02T03:07:35.321Z,16.77
2019-02-02T03:10:02.272Z,17.77
2019-02-02T03:12:28.327Z,16.87
2019-02-02T03:14:54.368Z,17.50
2019-02-02T03:17:20.426Z,17.87
2019-02-02T03:19:46.511Z,16.93
2019-02-02T03:22:12.552Z,17.37
2019-02-02T03:24:38.879Z,15.60
2019-02-02T03:27:04.911Z,16.27
2019-02-02T03:29:30.967Z,15.87
2019-02-02T03:31:57.033Z,16.00
2019-02-02T03:34:23.074Z,17.13
2019-02-02T03:36:49.399Z,17.90
2019-02-02T03:39:15.455Z,17.77
2019-02-02T03:41:41.495Z,17.70
2019-02-02T03:44:07.654Z,21.13
2019-02-02T03:46:33.999Z,19.47
2019-02-02T03:49:00.072Z,16.83
2019-02-02T03:51:26.209Z,19.37
2019-02-02T03:53:52.343Z,20.87
2019-02-02T03:56:18.402Z,18.97
2019-02-02T03:58:44.932Z,18.20
2019-02-02T04:01:10.986Z,18.37
2019-02-02T04:03:37.024Z,17.73
2019-02-02T04:06:03.189Z,17.00
2019-02-02T04:08:29.256Z,16.93
2019-02-02T04:10:55.311Z,19.03
2019-02-02T04:13:21.348Z,19.20
2019-02-02T04:15:47.405Z,18.60
2019-02-02T04:18:13.463Z,19.27
2019-02-02T04:20:39.503Z,16.47
2019-02-02T04:23:05.551Z,18.13
2019-02-02T04:25:31.592Z,18.17
2019-02-02T04:27:57.639Z,17.77
2019-02-02T04:30:25.382Z,18.13
2019-02-02T04:32:51.808Z,18.60
2019-02-02T04:35:18.068Z,17.97
2019-02-02T04:37:44.112Z,18.27
2019-02-02T04:40:12.463Z,19.83
2019-02-02T04:42:38.687Z,17.57
2019-02-02T04:45:07.767Z,18.87
2019-02-02T04:47:33.811Z,18.80
2019-02-02T04:50:00.360Z,19.60
2019-02-02T04:52:26.467Z,19.57
2019-02-02T04:54:52.515Z,17.63
2019-02-02T04:57:18.629Z,20.83
2019-02-02T04:59:44.679Z,18.73
2019-02-02T05:02:10.720Z,18.33
2019-02-02T05:04:36.794Z,19.83
2019-02-02T05:07:02.831Z,20.90
2019-02-02T05:09:28.895Z,19.63
2019-02-02T05:11:54.936Z,19.30
2019-02-02T05:14:20.994Z,19.40
2019-02-02T05:16:47.024Z,19.90
2019-02-02T05:19:13.083Z,18.83
2019-02-02T05:21:39.136Z,18.93
2019-02-02T05:24:05.190Z,19.53
2019-02-02T05:26:31.229Z,19.17
2019-02-02T05:28:57.275Z,19.57
2019-02-02T05:31:23.314Z,21.67
2019-02-02T05:33:49.669Z,20.90
2019-02-02T05:36:15.701Z,22.33
2019-02-02T05:38:41.751Z,22.27
2019-02-02T05:41:07.788Z,21.33
2019-02-02T05:43:33.875Z,20.77
2019-02-02T05:45:59.904Z,20.93
2019-02-02T05:48:26.308Z,21.27
2019-02-02T05:50:52.641Z,22.37
2019-02-02T05:53:18.692Z,21.73
2019-02-02T05:55:44.735Z,21.60
2019-02-02T05:58:10.791Z,21.57
2019-02-02T06:00:44.659Z,20.63
2019-02-02T06:03:10.720Z,22.40
2019-02-02T06:05:36.771Z,21.70
2019-02-02T06:08:03.121Z,21.40
2019-02-02T06:10:29.227Z,22.20
2019-02-02T06:12:55.265Z,21.17
2019-02-02T06:15:21.577Z,21.53
2019-02-02T06:17:47.656Z,24.20
2019-02-02T06:20:15.573Z,22.23
2019-02-02T06:22:41.627Z,23.17
2019-02-02T06:25:10.189Z,22.13
2019-02-02T06:27:36.223Z,23.30
2019-02-02T06:30:06.079Z,23.60
2019-02-02T06:32:32.126Z,22.10
2019-02-02T06:34:58.176Z,24.00
2019-02-02T06:37:24.221Z,24.23
2019-02-02T06:39:50.612Z,22.97
2019-02-02T06:42:16.659Z,22.77
2019-02-02T06:44:42.713Z,24.23
2019-02-02T06:47:09.092Z,23.10
2019-02-02T06:49:35.140Z,20.93
2019-02-02T06:52:01.445Z,22.20
2019-02-02T06:54:30.733Z,26.00
2019-02-02T06:56:55.546Z,24.80
2019-02-02T06:59:21.695Z,23.23
2019-02-02T07:01:48.097Z,22.57
2019-02-02T07:04:14.148Z,21.50
2019-02-02T07:06:40.192Z,22.70
2019-02-02T07:09:07.185Z,22.50
2019-02-02T07:11:33.516Z,24.40
2019-02-02T07:13:59.576Z,23.20
2019-02-02T07:16:25.603Z,23.70
2019-02-02T07:18:51.679Z,22.23
2019-02-02T07:21:17.719Z,22.33
2019-02-02T07:23:43.776Z,24.30
2019-02-02T07:26:09.811Z,24.67
2019-02-02T07:28:35.858Z,27.27
2019-02-02T07:31:02.317Z,28.27
2019-02-02T07:33:28.451Z,27.20
2019-02-02T07:35:54.512Z,26.47
2019-02-02T07:38:20.548Z,27.20
2019-02-02T07:40:46.915Z,25.07
2019-02-02T07:43:12.951Z,26.87
2019-02-02T07:45:39.011Z,28.87
2019-02-02T07:48:05.059Z,28.37
2019-02-02T07:50:31.350Z,27.67
2019-02-02T07:52:57.594Z,27.63
2019-02-02T07:55:23.991Z,29.13
2019-02-02T07:57:50.399Z,28.50
2019-02-02T08:00:25.900Z,31.07
2019-02-02T08:02:52.239Z,28.93
2019-02-02T08:05:18.293Z,29.83
2019-02-02T08:07:44.339Z,29.10
2019-02-02T08:10:12.101Z,28.67
2019-02-02T08:12:38.252Z,28.57
2019-02-02T08:15:13.779Z,28.87
2019-02-02T08:17:40.099Z,28.77
2019-02-02T08:20:11.179Z,28.17
2019-02-02T08:22:37.580Z,25.67
2019-02-02T08:25:06.031Z,31.63
2019-02-02T08:27:32.076Z,28.00
2019-02-02T08:29:58.132Z,30.77
2019-02-02T08:32:24.201Z,31.13
2019-02-02T08:34:50.320Z,29.47
2019-02-02T08:37:16.369Z,29.17
2019-02-02T08:39:42.705Z,29.77
2019-02-02T08:42:08.759Z,31.33
2019-02-02T08:44:34.816Z,32.13
2019-02-02T08:47:00.857Z,30.77
2019-02-02T08:49:26.903Z,30.93
2019-02-02T08:51:52.939Z,31.13
2019-02-02T08:54:19.000Z,32.17
2019-02-02T08:56:45.043Z,32.07
2019-02-02T08:59:11.095Z,31.23
2019-02-02T09:01:37.133Z,31.27
2019-02-02T09:04:03.200Z,31.30
2019-02-02T09:06:38.513Z,32.40
2019-02-02T09:08:57.188Z,33.40
2019-02-02T09:11:23.244Z,33.47
2019-02-02T09:13:49.292Z,30.83
2019-02-02T09:16:15.335Z,32.30
2019-02-02T09:18:41.391Z,33.43
2019-02-02T09:21:07.768Z,34.23
2019-02-02T09:23:33.809Z,32.67
2019-02-02T09:25:59.859Z,31.53
2019-02-02T09:28:25.901Z,32.50
2019-02-02T09:30:51.957Z,34.93
2019-02-02T09:33:18.184Z,32.33
2019-02-02T09:35:44.334Z,33.27
2019-02-02T09:38:12.154Z,32.90
2019-02-02T09:40:38.336Z,30.27
2019-02-02T09:43:05.545Z,28.03
2019-02-02T09:45:31.917Z,32.80
2019-02-02T09:47:58.024Z,31.80
2019-02-02T09:50:25.567Z,31.23
2019-02-02T09:52:51.623Z,33.93
2019-02-02T09:55:19.685Z,31.50
2019-02-02T09:57:46.119Z,33.10
2019-02-02T10:00:15.267Z,34.13
2019-02-02T10:02:41.323Z,34.37
2019-02-02T10:05:08.048Z,31.97
2019-02-02T10:07:34.378Z,32.93
2019-02-02T10:10:00.431Z,34.20
2019-02-02T10:12:26.477Z,33.47
2019-02-02T10:14:52.515Z,32.90
2019-02-02T10:17:18.571Z,34.90
2019-02-02T10:19:44.612Z,35.27
2019-02-02T10:22:10.649Z,34.63
2019-02-02T10:24:36.704Z,33.40
2019-02-02T10:27:02.952Z,35.37
2019-02-02T10:29:29.007Z,34.70
2019-02-02T10:31:55.344Z,35.17
2019-02-02T10:34:21.383Z,34.67
2019-02-02T10:36:47.442Z,34.37
2019-02-02T10:39:13.483Z,34.70
2019-02-02T10:41:39.841Z,32.93
2019-02-02T10:44:06.109Z,34.13
2019-02-02T10:46:32.145Z,32.67
2019-02-02T10:48:58.215Z,34.00
2019-02-02T10:51:25.543Z,33.50
2019-02-02T10:53:51.715Z,33.27
2019-02-02T10:56:17.769Z,33.73
2019-02-02T10:58:43.811Z,34.90
2019-02-02T11:01:09.855Z,33.87
2019-02-02T11:03:35.925Z,33.17
2019-02-02T11:06:02.578Z,35.10
2019-02-02T11:08:28.800Z,35.03
2019-02-02T11:10:54.918Z,34.63
2019-02-02T11:13:21.041Z,36.20
2019-02-02T11:15:47.355Z,36.10
2019-02-02T11:18:13.573Z,33.07
2019-02-02T11:20:39.710Z,33.03
2019-02-02T11:23:05.987Z,35.17
2019-02-02T11:25:32.218Z,34.03
2019-02-02T11:27:58.400Z,33.83
2019-02-02T11:30:25.426Z,32.57
2019-02-02T11:32:51.936Z,33.60
2019-02-02T11:35:19.399Z,34.00
2019-02-02T11:37:45.833Z,34.37
2019-02-02T11:40:24.171Z,33.47
2019-02-02T11:42:50.209Z,33.27
2019-02-02T11:45:16.648Z,31.63
2019-02-02T11:47:43.027Z,35.20
2019-02-02T11:50:11.875Z,33.87
2019-02-02T11:52:37.917Z,32.93
2019-02-02T11:55:07.293Z,31.87
2019-02-02T11:57:33.343Z,32.43
2019-02-02T11:59:59.379Z,33.23
2019-02-02T12:02:25.440Z,33.63
2019-02-02T12:04:51.488Z,33.13
2019-02-02T12:07:17.585Z,33.13
2019-02-02T12:09:43.716Z,31.97
2019-02-02T12:12:09.849Z,32.27
2019-02-02T12:14:36.252Z,33.33
2019-02-02T12:17:02.519Z,31.63
2019-02-02T12:19:28.902Z,33.27
2019-02-02T12:21:54.966Z,31.13
2019-02-02T12:24:21.090Z,32.27
2019-02-02T12:26:47.131Z,32.20
2019-02-02T12:29:13.519Z,29.37
2019-02-02T12:31:39.551Z,31.57
2019-02-02T12:34:05.860Z,31.17
2019-02-02T12:36:31.902Z,28.97
2019-02-02T12:38:58.211Z,31.07
2019-02-02T12:41:24.257Z,32.63
2019-02-02T12:43:50.402Z,31.23
2019-02-02T12:46:16.464Z,30.67
2019-02-02T12:48:42.508Z,32.00
2019-02-02T12:51:08.576Z,29.57
2019-02-02T12:53:34.619Z,31.60
2019-02-02T12:56:00.764Z,33.37
2019-02-02T12:58:26.823Z,31.47
2019-02-02T13:00:52.863Z,31.47
2019-02-02T13:03:18.920Z,31.03
2019-02-02T13:05:44.968Z,32.07
2019-02-02T13:08:11.017Z,33.53
2019-02-02T13:10:37.069Z,32.53
2019-02-02T13:13:03.413Z,32.77
2019-02-02T13:15:29.459Z,32.20
2019-02-02T13:17:55.619Z,33.13
2019-02-02T13:20:21.662Z,31.70
2019-02-02T13:22:47.936Z,31.67
2019-02-02T13:25:16.291Z,32.90
2019-02-02T13:27:42.335Z,33.40
2019-02-02T13:30:12.100Z,33.47
2019-02-02T13:32:49.118Z,32.23
2019-02-02T13:35:11.799Z,33.40
2019-02-02T13:37:37.851Z,34.63
2019-02-02T13:40:07.712Z,32.00
2019-02-02T13:42:33.763Z,31.43
2019-02-02T13:45:00.336Z,31.50
2019-02-02T13:47:26.430Z,30.63
2019-02-02T13:49:52.496Z,30.20
2019-02-02T13:52:18.577Z,30.50
2019-02-02T13:54:44.606Z,29.43
2019-02-02T13:57:10.677Z,29.67
2019-02-02T13:59:36.716Z,30.40
2019-02-02T14:02:02.755Z,29.47
2019-02-02T14:04:29.096Z,30.07
2019-02-02T14:06:56.053Z,30.50
2019-02-02T14:09:22.108Z,32.63
2019-02-02T14:11:48.150Z,30.67
2019-02-02T14:14:14.212Z,28.27
2019-02-02T14:16:40.248Z,31.93
2019-02-02T14:19:06.387Z,28.80
2019-02-02T14:21:32.444Z,31.67
2019-02-02T14:23:58.504Z,29.17
2019-02-02T14:26:24.555Z,31.40
2019-02-02T14:28:50.780Z,29.43
2019-02-02T14:31:16.815Z,29.57
2019-02-02T14:33:42.872Z,30.77
2019-02-02T14:36:08.947Z,29.47
2019-02-02T14:38:35.081Z,30.77
2019-02-02T14:41:01.150Z,30.60
2019-02-02T14:43:27.263Z,32.20
2019-02-02T14:45:53.327Z,31.07
2019-02-02T14:48:19.367Z,31.00
2019-02-02T14:50:45.407Z,29.87
2019-02-02T14:53:16.409Z,31.93
2019-02-02T14:55:41.484Z,30.40
2019-02-02T14:58:07.623Z,29.97
2019-02-02T15:00:33.683Z,29.60
2019-02-02T15:03:03.103Z,28.17
2019-02-02T15:05:27.875Z,28.13
2019-02-02T15:07:53.923Z,29.80
2019-02-02T15:10:20.992Z,30.73
2019-02-02T15:12:47.336Z,28.07
2019-02-02T15:15:14.787Z,26.27
2019-02-02T15:17:44.207Z,30.57
2019-02-02T15:20:17.813Z,25.90
2019-02-02T15:22:43.859Z,26.37
2019-02-02T15:25:11.016Z,26.70
2019-02-02T15:27:37.064Z,27.07
2019-02-02T15:30:09.736Z,26.60
2019-02-02T15:32:35.782Z,27.50
2019-02-02T15:35:02.822Z,27.33
2019-02-02T15:37:28.865Z,26.47
2019-02-02T15:39:54.936Z,26.37
2019-02-02T15:42:21.000Z,26.67
2019-02-02T15:44:47.036Z,26.77
2019-02-02T15:47:13.080Z,27.23
2019-02-02T15:49:39.140Z,23.40
2019-02-02T15:52:05.189Z,25.23
2019-02-02T15:54:31.256Z,26.53
2019-02-02T15:56:57.579Z,26.37
2019-02-02T15:59:23.623Z,25.20
2019-02-02T16:01:49.678Z,25.63
2019-02-02T16:04:15.738Z,24.50
2019-02-02T16:06:41.792Z,24.47
2019-02-02T16:09:07.840Z,26.10
2019-02-02T16:11:33.888Z,24.97
2019-02-02T16:13:59.930Z,26.73
2019-02-02T16:16:25.980Z,26.17
2019-02-02T16:18:52.037Z,24.83
2019-02-02T16:21:18.071Z,26.20
2019-02-02T16:23:44.119Z,26.67
2019-02-02T16:26:10.172Z,26.90
2019-02-02T16:28:36.222Z,27.43
2019-02-02T16:31:02.277Z,25.93
2019-02-02T16:33:28.315Z,24.80
2019-02-02T16:35:54.363Z,27.30
2019-02-02T16:38:20.422Z,26.10
2019-02-02T16:40:46.672Z,29.47
2019-02-02T16:43:12.766Z,26.93
2019-02-02T16:45:38.811Z,30.07
2019-02-02T16:48:04.962Z,28.60
2019-02-02T16:50:31.015Z,29.17
2019-02-02T16:52:57.402Z,29.90
2019-02-02T16:55:23.587Z,28.90
2019-02-02T16:57:49.636Z,27.80
2019-02-02T17:00:19.519Z,27.27
2019-02-02T17:02:45.763Z,26.57
2019-02-02T17:05:12.124Z,29.03
2019-02-02T17:07:38.191Z,26.63
2019-02-02T17:10:08.043Z,28.27
2019-02-02T17:12:34.113Z,26.83
2019-02-02T17:15:00.200Z,27.57
2019-02-02T17:17:26.308Z,27.67
2019-02-02T17:19:54.801Z,27.13
2019-02-02T17:22:20.571Z,28.67
2019-02-02T17:24:46.900Z,28.30
2019-02-02T17:27:12.957Z,30.03
2019-02-02T17:29:39.000Z,29.00
2019-02-02T17:32:05.160Z,28.83
2019-02-02T17:34:31.203Z,28.67
2019-02-02T17:36:57.242Z,30.10
2019-02-02T17:39:23.329Z,30.50
2019-02-02T17:41:49.692Z,28.80
2019-02-02T17:44:15.852Z,29.93
2019-02-02T17:46:41.980Z,27.90
2019-02-02T17:49:08.015Z,30.63
2019-02-02T17:51:34.072Z,31.50
2019-02-02T17:54:00.119Z,31.43
2019-02-02T17:56:26.189Z,31.37
2019-02-02T17:58:52.557Z,31.73
2019-02-02T18:01:18.591Z,31.97
2019-02-02T18:03:44.660Z,30.77
2019-02-02T18:06:10.804Z,30.53
2019-02-02T18:08:36.847Z,31.43
2019-02-02T18:11:02.911Z,31.50
2019-02-02T18:13:28.973Z,30.20
2019-02-02T18:15:55.262Z,30.27
2019-02-02T18:18:21.662Z,30.87
2019-02-02T18:20:47.701Z,32.23
2019-02-02T18:23:13.859Z,33.37
2019-02-02T18:25:40.100Z,31.63
2019-02-02T18:28:06.138Z,30.47
2019-02-02T18:30:32.195Z,32.53
2019-02-02T18:32:58.438Z,30.63
2019-02-02T18:35:24.776Z,31.20
2019-02-02T18:37:50.831Z,31.37
2019-02-02T18:40:22.419Z,28.70
2019-02-02T18:42:48.750Z,30.90
2019-02-02T18:45:20.871Z,28.40
2019-02-02T18:47:47.424Z,29.37
2019-02-02T18:50:15.371Z,27.40
2019-02-02T18:52:42.128Z,30.03
2019-02-02T18:55:11.708Z,28.80
2019-02-02T18:57:37.747Z,30.30
2019-02-02T19:00:10.744Z,31.83
2019-02-02T19:02:36.787Z,28.83
2019-02-02T19:05:04.856Z,30.33
2019-02-02T19:07:30.903Z,31.43
2019-02-02T19:09:56.943Z,31.30
2019-02-02T19:12:22.995Z,32.83
2019-02-02T19:14:49.035Z,32.03
2019-02-02T19:17:15.072Z,31.13
2019-02-02T19:19:41.140Z,33.27
2019-02-02T19:22:07.179Z,30.53
2019-02-02T19:24:33.568Z,30.13
2019-02-02T19:26:59.624Z,28.70
2019-02-02T19:29:25.679Z,28.50
2019-02-02T19:31:51.723Z,28.23
2019-02-02T19:34:18.424Z,26.60
2019-02-02T19:36:44.951Z,25.93
2019-02-02T19:39:10.994Z,22.83
2019-02-02T19:41:37.037Z,23.80
2019-02-02T19:44:03.401Z,24.90
2019-02-02T19:46:29.440Z,22.93
2019-02-02T19:48:55.475Z,25.53
2019-02-02T19:51:21.537Z,27.67
2019-02-02T19:53:47.584Z,27.33
2019-02-02T19:56:13.911Z,26.27
2019-02-02T19:58:39.951Z,29.07
2019-02-02T20:01:06.009Z,29.17
2019-02-02T20:03:32.397Z,29.27
2019-02-02T20:05:58.438Z,28.20
2019-02-02T20:08:24.632Z,30.50
2019-02-02T20:10:51.009Z,32.23
2019-02-02T20:13:19.509Z,32.37
2019-02-02T20:15:45.513Z,32.17
2019-02-02T20:18:11.729Z,31.53
2019-02-02T20:20:37.863Z,33.30
2019-02-02T20:23:04.209Z,32.60
2019-02-02T20:25:30.703Z,32.93
2019-02-02T20:27:58.120Z,34.20
2019-02-02T20:30:31.481Z,32.10
2019-02-02T20:32:58.031Z,33.83
2019-02-02T20:35:24.551Z,33.10
2019-02-02T20:37:50.957Z,32.40
2019-02-02T20:40:19.009Z,34.97
2019-02-02T20:42:45.355Z,35.47
2019-02-02T20:45:19.624Z,35.60
2019-02-02T20:47:45.671Z,36.53
2019-02-02T20:50:16.939Z,38.77
2019-02-02T20:52:47.494Z,37.67
2019-02-02T20:55:14.964Z,37.40
2019-02-02T20:57:41.293Z,39.73
2019-02-02T21:00:16.852Z,37.30
2019-02-02T21:02:43.475Z,36.63
2019-02-02T21:05:09.620Z,39.77
2019-02-02T21:07:35.665Z,40.40
2019-02-02T21:10:01.738Z,41.00
2019-02-02T21:12:27.790Z,40.13
2019-02-02T21:14:54.129Z,41.87
2019-02-02T21:17:20.193Z,38.33
2019-02-02T21:19:46.251Z,34.87
2019-02-02T21:22:12.295Z,33.40
2019-02-02T21:24:38.356Z,37.57
2019-02-02T21:27:04.402Z,37.40
2019-02-02T21:29:30.721Z,38.40
2019-02-02T21:31:57.356Z,40.13
2019-02-02T21:34:23.788Z,38.60
2019-02-02T21:36:49.827Z,40.97
2019-02-02T21:39:15.876Z,35.97
2019-02-02T21:41:42.264Z,33.50
2019-02-02T21:44:08.303Z,31.73
2019-02-02T21:46:34.623Z,32.20
2019-02-02T21:49:01.251Z,33.23
2019-02-02T21:51:27.294Z,32.10
2019-02-02T21:53:53.346Z,33.90
2019-02-02T21:56:19.403Z,37.63
2019-02-02T21:58:45.457Z,36.20
2019-02-02T22:01:22.749Z,37.10
2019-02-02T22:03:39.456Z,33.90
2019-02-02T22:06:15.025Z,33.20
2019-02-02T22:08:35.676Z,34.60
2019-02-02T22:11:01.720Z,34.57
2019-02-02T22:13:27.779Z,34.20
2019-02-02T22:15:53.830Z,33.67
2019-02-02T22:18:21.815Z,36.57
2019-02-02T22:20:47.939Z,36.70
2019-02-02T22:23:14.075Z,34.57
2019-02-02T22:25:40.121Z,35.83
2019-02-02T22:28:06.194Z,34.63
2019-02-02T22:30:36.563Z,33.10
2019-02-02T22:33:03.519Z,34.10
2019-02-02T22:35:29.564Z,32.50
2019-02-02T22:37:56.359Z,30.53
2019-02-02T22:40:24.740Z,35.30
2019-02-02T22:42:50.783Z,31.33
2019-02-02T22:45:18.172Z,33.03
2019-02-02T22:47:44.847Z,31.70
2019-02-02T22:50:13.792Z,31.47
2019-02-02T22:52:40.563Z,29.60
2019-02-02T22:55:12.292Z,28.60
2019-02-02T22:57:38.338Z,29.57
2019-02-02T23:00:33.121Z,28.37
2019-02-02T23:03:00.389Z,32.47
2019-02-02T23:05:36.056Z,33.77
2019-02-02T23:08:06.183Z,29.93
2019-02-02T23:10:42.271Z,31.00
2019-02-02T23:13:24.133Z,30.83
2019-02-02T23:16:13.069Z,32.07
2019-02-02T23:18:39.024Z,31.40
2019-02-02T23:21:05.664Z,31.43
2019-02-02T23:23:31.711Z,33.77
2019-02-02T23:25:57.864Z,32.00
2019-02-02T23:28:24.227Z,31.10
2019-02-02T23:30:50.273Z,31.60
2019-02-02T23:33:16.339Z,32.23
2019-02-02T23:35:42.376Z,31.57
2019-02-02T23:38:08.819Z,32.23
2019-02-02T23:40:34.876Z,32.57
2019-02-02T23:43:00.911Z,33.33
2019-02-02T23:45:26.984Z,35.30
2019-02-02T23:47:53.858Z,34.17
2019-02-02T23:50:19.912Z,32.53
2019-02-02T23:52:45.985Z,31.07
2019-02-02T23:55:12.236Z,31.30
2019-02-02T23:57:38.346Z,32.90
